Terminal Aerodrome Forecast
Issued by NWS

Home | Current Version | Previous Version | Text Only | Print | Product List | Glossary On
Versions: 1 2 3 4 5 6 7 8 9 10 11 12 13 14 15 16 17 18 19 20 21 22 23 24 25 26 27 28 29 30 31 32 33 34 35 36 37 38 39 40 41 42
016
FTUS43 KFGF 230525
TAFDVL
TAF
KDVL 230525Z 2306/2406 24006KT P6SM BKN008 OVC015
     FM231400 18007KT P6SM SCT015 BKN025
     FM231600 19009KT P6SM SCT035 BKN100
     FM232100 23012KT P6SM BKN060=

USA.gov is the U.S. government's official web portal to all federal, state and local government web resources and services.